createdAt,value
2022-10-04T00:00:46.630Z,1019.50
2022-10-04T00:01:46.648Z,1019.54
2022-10-04T00:02:46.651Z,1019.58
2022-10-04T00:03:46.635Z,1019.47
2022-10-04T00:04:46.574Z,1019.57
2022-10-04T00:05:46.604Z,1019.55
2022-10-04T00:06:46.545Z,1019.55
2022-10-04T00:07:46.561Z,1019.58
2022-10-04T00:08:46.541Z,1019.53
2022-10-04T00:09:46.519Z,1019.56
2022-10-04T00:10:46.519Z,1019.59
2022-10-04T00:11:46.522Z,1019.58
2022-10-04T00:12:46.492Z,1019.56
2022-10-04T00:13:46.478Z,1019.62
2022-10-04T00:14:46.450Z,1019.61
2022-10-04T00:15:46.474Z,1019.64
2022-10-04T00:16:46.469Z,1019.58
2022-10-04T00:17:46.430Z,1019.60
2022-10-04T00:18:46.411Z,1019.55
2022-10-04T00:19:46.423Z,1019.57
2022-10-04T00:20:46.423Z,1019.58
2022-10-04T00:21:46.401Z,1019.64
2022-10-04T00:22:46.370Z,1019.63
2022-10-04T00:23:46.367Z,1019.64
2022-10-04T00:24:46.352Z,1019.66
2022-10-04T00:25:46.332Z,1019.68
2022-10-04T00:26:46.355Z,1019.60
2022-10-04T00:27:46.314Z,1019.62
2022-10-04T00:28:46.305Z,1019.55
2022-10-04T00:29:46.292Z,1019.53
2022-10-04T00:30:46.283Z,1019.56
2022-10-04T00:31:46.363Z,1019.55
2022-10-04T00:32:46.273Z,1019.52
2022-10-04T00:33:46.250Z,1019.56
2022-10-04T00:34:46.245Z,1019.55
2022-10-04T00:35:46.226Z,1019.53
2022-10-04T00:36:46.226Z,1019.49
2022-10-04T00:37:46.236Z,1019.59
2022-10-04T00:38:46.206Z,1019.54
2022-10-04T00:39:46.186Z,1019.67
2022-10-04T00:40:46.186Z,1019.55
2022-10-04T00:41:46.179Z,1019.57
2022-10-04T00:42:46.187Z,1019.59
2022-10-04T00:43:46.145Z,1019.59
2022-10-04T00:44:46.160Z,1019.54
2022-10-04T00:45:46.221Z,1019.57
2022-10-04T00:46:46.118Z,1019.60
2022-10-04T00:47:46.148Z,1019.61
2022-10-04T00:48:46.099Z,1019.61
2022-10-04T00:49:46.089Z,1019.55
2022-10-04T00:50:46.078Z,1019.58
2022-10-04T00:51:46.061Z,1019.60
2022-10-04T00:52:46.065Z,1019.62
2022-10-04T00:53:46.029Z,1019.59
2022-10-04T00:54:46.062Z,1019.60
2022-10-04T00:55:46.009Z,1019.57
2022-10-04T00:56:45.996Z,1019.62
2022-10-04T00:57:46.002Z,1019.64
2022-10-04T00:58:45.969Z,1019.61
2022-10-04T00:59:45.971Z,1019.61
2022-10-04T01:00:45.990Z,1019.62
2022-10-04T01:01:46.149Z,1019.60
2022-10-04T01:02:45.951Z,1019.58
2022-10-04T01:03:45.921Z,1019.54
2022-10-04T01:04:45.918Z,1019.54
2022-10-04T01:05:45.912Z,1019.51
2022-10-04T01:06:45.904Z,1019.54
2022-10-04T01:07:45.904Z,1019.50
2022-10-04T01:08:45.874Z,1019.56
2022-10-04T01:09:45.873Z,1019.55
2022-10-04T01:10:45.842Z,1019.54
2022-10-04T01:11:45.843Z,1019.51
2022-10-04T01:12:45.856Z,1019.54
2022-10-04T01:13:45.815Z,1019.54
2022-10-04T01:14:45.795Z,1019.46
2022-10-04T01:15:45.898Z,1019.49
2022-10-04T01:16:45.788Z,1019.47
2022-10-04T01:17:45.815Z,1019.53
2022-10-04T01:18:45.754Z,1019.45
2022-10-04T01:19:45.754Z,1019.45
2022-10-04T01:20:45.736Z,1019.43
2022-10-04T01:21:45.726Z,1019.49
2022-10-04T01:22:45.715Z,1019.48
2022-10-04T01:23:45.736Z,1019.49
2022-10-04T01:24:45.710Z,1019.46
2022-10-04T01:25:45.707Z,1019.51
2022-10-04T01:26:45.683Z,1019.50
2022-10-04T01:27:45.668Z,1019.50
2022-10-04T01:28:45.656Z,1019.45
2022-10-04T01:29:45.679Z,1019.49
2022-10-04T01:30:45.632Z,1019.49
2022-10-04T01:31:46.019Z,1019.51
2022-10-04T01:32:45.664Z,1019.52
2022-10-04T01:33:45.601Z,1019.51
2022-10-04T01:34:45.609Z,1019.47
2022-10-04T01:35:45.580Z,1019.52
2022-10-04T01:36:45.571Z,1019.51
2022-10-04T01:37:45.561Z,1019.52
2022-10-04T01:38:45.561Z,1019.53
2022-10-04T01:39:45.550Z,1019.51
2022-10-04T01:40:45.530Z,1019.51
2022-10-04T01:41:45.517Z,1019.51
2022-10-04T01:42:45.501Z,1019.53
2022-10-04T01:43:45.514Z,1019.47
2022-10-04T01:44:45.525Z,1019.47
2022-10-04T01:45:45.482Z,1019.47
2022-10-04T01:46:45.528Z,1019.49
2022-10-04T01:47:45.444Z,1019.47
2022-10-04T01:48:45.431Z,1019.48
2022-10-04T01:49:45.452Z,1019.47
2022-10-04T01:50:45.424Z,1019.45
2022-10-04T01:51:45.405Z,1019.48
2022-10-04T01:52:45.394Z,1019.48
2022-10-04T01:53:45.391Z,1019.50
2022-10-04T01:54:45.403Z,1019.45
2022-10-04T01:55:45.373Z,1019.45
2022-10-04T01:56:45.355Z,1019.47
2022-10-04T01:57:45.354Z,1019.43
2022-10-04T01:58:45.343Z,1019.44
2022-10-04T01:59:45.333Z,1019.45
2022-10-04T02:00:45.442Z,1019.46
2022-10-04T02:01:45.768Z,1019.48
2022-10-04T02:02:45.285Z,1019.44
2022-10-04T02:03:45.361Z,1019.46
2022-10-04T02:04:45.330Z,1019.42
2022-10-04T02:05:45.297Z,1019.46
2022-10-04T02:06:45.237Z,1019.41
2022-10-04T02:07:45.236Z,1019.38
2022-10-04T02:08:45.226Z,1019.45
2022-10-04T02:09:45.226Z,1019.47
2022-10-04T02:10:45.232Z,1019.43
2022-10-04T02:11:45.198Z,1019.48
2022-10-04T02:12:45.179Z,1019.44
2022-10-04T02:13:45.178Z,1019.43
2022-10-04T02:14:45.191Z,1019.52
2022-10-04T02:15:45.279Z,1019.48
2022-10-04T02:16:45.150Z,1019.56
2022-10-04T02:17:45.150Z,1019.53
2022-10-04T02:18:45.120Z,1019.50
2022-10-04T02:19:45.205Z,1019.44
2022-10-04T02:20:45.131Z,1019.49
2022-10-04T02:21:45.104Z,1019.47
2022-10-04T02:22:45.086Z,1019.51
2022-10-04T02:23:45.071Z,1019.44
2022-10-04T02:24:45.081Z,1019.45
2022-10-04T02:25:45.063Z,1019.42
2022-10-04T02:26:45.031Z,1019.37
2022-10-04T02:27:45.022Z,1019.40
2022-10-04T02:28:45.013Z,1019.36
2022-10-04T02:29:45.003Z,1019.38
2022-10-04T02:30:45.036Z,1019.35
2022-10-04T02:31:45.446Z,1019.28
2022-10-04T02:32:44.974Z,1019.38
2022-10-04T02:33:44.961Z,1019.37
2022-10-04T02:34:44.944Z,1019.36
2022-10-04T02:35:44.960Z,1019.36
2022-10-04T02:36:44.923Z,1019.29
2022-10-04T02:37:44.913Z,1019.33
2022-10-04T02:38:44.922Z,1019.29
2022-10-04T02:39:44.894Z,1019.24
2022-10-04T02:40:44.886Z,1019.23
2022-10-04T02:41:44.908Z,1019.28
2022-10-04T02:42:44.875Z,1019.34
2022-10-04T02:43:44.853Z,1019.30
2022-10-04T02:44:44.856Z,1019.26
2022-10-04T02:45:44.847Z,1019.27
2022-10-04T02:46:44.907Z,1019.26
2022-10-04T02:47:44.820Z,1019.27
2022-10-04T02:48:44.818Z,1019.28
2022-10-04T02:49:44.785Z,1019.28
2022-10-04T02:50:44.777Z,1019.28
2022-10-04T02:51:44.796Z,1019.29
2022-10-04T02:52:44.756Z,1019.21
2022-10-04T02:53:44.753Z,1019.25
2022-10-04T02:54:44.739Z,1019.26
2022-10-04T02:55:44.719Z,1019.25
2022-10-04T02:56:44.751Z,1019.25
2022-10-04T02:57:44.710Z,1019.23
2022-10-04T02:58:44.696Z,1019.26
2022-10-04T02:59:44.689Z,1019.21
2022-10-04T03:00:44.717Z,1019.17
2022-10-04T03:01:45.165Z,1019.17
2022-10-04T03:02:44.702Z,1019.14
2022-10-04T03:03:44.647Z,1019.19
2022-10-04T03:04:44.630Z,1019.22
2022-10-04T03:05:44.612Z,1019.23
2022-10-04T03:06:44.647Z,1019.21
2022-10-04T03:07:44.592Z,1019.13
2022-10-04T03:08:44.592Z,1019.17
2022-10-04T03:09:44.562Z,1019.13
2022-10-04T03:10:44.561Z,1019.12
2022-10-04T03:11:44.822Z,1019.09
2022-10-04T03:12:44.541Z,1019.11
2022-10-04T03:13:44.536Z,1019.13
2022-10-04T03:14:44.524Z,1019.10
2022-10-04T03:15:44.564Z,1019.11
2022-10-04T03:16:44.516Z,1019.07
2022-10-04T03:17:44.485Z,1019.07
2022-10-04T03:18:44.460Z,1019.09
2022-10-04T03:19:44.455Z,1019.08
2022-10-04T03:20:44.441Z,1019.07
2022-10-04T03:21:44.555Z,1019.10
2022-10-04T03:22:46.909Z,1019.07
2022-10-04T03:23:44.414Z,1019.08
2022-10-04T03:24:44.404Z,1019.06
2022-10-04T03:25:44.400Z,1019.01
2022-10-04T03:26:44.416Z,1019.06
2022-10-04T03:27:44.410Z,1019.07
2022-10-04T03:28:44.365Z,1019.07
2022-10-04T03:29:44.350Z,1019.04
2022-10-04T03:30:44.348Z,1019.04
2022-10-04T03:31:44.698Z,1019.05
2022-10-04T03:32:44.349Z,1019.08
2022-10-04T03:33:44.306Z,1019.07
2022-10-04T03:34:44.299Z,1019.07
2022-10-04T03:35:44.291Z,1019.04
2022-10-04T03:36:44.310Z,1019.08
2022-10-04T03:37:44.284Z,1019.09
2022-10-04T03:38:44.259Z,1019.11
2022-10-04T03:39:44.239Z,1019.11
2022-10-04T03:40:44.230Z,1019.12
2022-10-04T03:41:44.271Z,1019.15
2022-10-04T03:42:44.229Z,1019.14
2022-10-04T03:43:44.208Z,1019.19
2022-10-04T03:44:44.199Z,1019.14
2022-10-04T03:45:44.219Z,1019.13
2022-10-04T03:46:44.162Z,1019.12
2022-10-04T03:47:44.180Z,1019.07
2022-10-04T03:48:44.151Z,1019.13
2022-10-04T03:49:48.548Z,1019.17
2022-10-04T03:50:45.134Z,1019.05
2022-10-04T03:51:44.112Z,1019.09
2022-10-04T03:52:44.131Z,1019.12
2022-10-04T03:53:44.094Z,1019.11
2022-10-04T03:54:44.072Z,1019.08
2022-10-04T03:55:44.064Z,1019.12
2022-10-04T03:56:44.061Z,1019.14
2022-10-04T03:57:44.093Z,1019.12
2022-10-04T03:58:44.045Z,1019.13
2022-10-04T03:59:44.038Z,1019.10
2022-10-04T04:00:44.050Z,1019.09
2022-10-04T04:01:44.486Z,1019.11
2022-10-04T04:02:46.137Z,1019.05
2022-10-04T04:03:43.984Z,1019.02
2022-10-04T04:04:43.994Z,1019.06
2022-10-04T04:05:43.967Z,1019.06
2022-10-04T04:06:43.955Z,1019.10
2022-10-04T04:07:43.966Z,1019.16
2022-10-04T04:08:43.941Z,1019.09
2022-10-04T04:09:43.916Z,1019.09
2022-10-04T04:10:43.917Z,1019.07
2022-10-04T04:11:44.051Z,1019.09
2022-10-04T04:12:43.940Z,1019.13
2022-10-04T04:13:43.877Z,1019.07
2022-10-04T04:14:43.867Z,1019.09
2022-10-04T04:15:43.862Z,1019.18
2022-10-04T04:16:43.869Z,1019.14
2022-10-04T04:17:43.863Z,1019.15
2022-10-04T04:18:43.846Z,1019.20
2022-10-04T04:19:43.811Z,1019.23
2022-10-04T04:20:43.805Z,1019.21
2022-10-04T04:21:44.003Z,1019.20
2022-10-04T04:22:43.840Z,1019.18
2022-10-04T04:23:43.780Z,1019.20
2022-10-04T04:24:43.788Z,1019.24
2022-10-04T04:25:43.761Z,1019.25
2022-10-04T04:26:43.751Z,1019.27
2022-10-04T04:27:43.734Z,1019.28
2022-10-04T04:28:43.750Z,1019.22
2022-10-04T04:29:43.723Z,1019.17
2022-10-04T04:30:43.713Z,1019.24
2022-10-04T04:31:43.957Z,1019.23
2022-10-04T04:32:43.706Z,1019.25
2022-10-04T04:33:43.693Z,1019.26
2022-10-04T04:34:43.660Z,1019.20
2022-10-04T04:35:43.640Z,1019.20
2022-10-04T04:36:43.633Z,1019.22
2022-10-04T04:37:43.633Z,1019.25
2022-10-04T04:38:43.641Z,1019.26
2022-10-04T04:39:43.603Z,1019.26
2022-10-04T04:40:43.604Z,1019.19
2022-10-04T04:41:48.126Z,1019.23
2022-10-04T04:42:44.577Z,1019.22
2022-10-04T04:43:43.586Z,1019.23
2022-10-04T04:44:43.551Z,1019.22
2022-10-04T04:45:43.598Z,1019.26
2022-10-04T04:46:43.635Z,1019.16
2022-10-04T04:47:43.515Z,1019.21
2022-10-04T04:48:43.515Z,1019.23
2022-10-04T04:49:43.496Z,1019.16
2022-10-04T04:50:43.527Z,1019.22
2022-10-04T04:51:43.610Z,1019.26
2022-10-04T04:52:43.529Z,1019.24
2022-10-04T04:53:43.475Z,1019.23
2022-10-04T04:54:43.427Z,1019.27
2022-10-04T04:56:02.719Z,1019.21
2022-10-04T04:56:44.414Z,1019.27
2022-10-04T04:57:43.416Z,1019.26
2022-10-04T04:58:43.400Z,1019.24
2022-10-04T04:59:43.419Z,1019.23
2022-10-04T05:00:43.414Z,1019.29
2022-10-04T05:01:43.847Z,1019.24
2022-10-04T05:02:43.348Z,1019.27
2022-10-04T05:03:43.358Z,1019.22
2022-10-04T05:04:43.340Z,1019.26
2022-10-04T05:05:43.329Z,1019.23
2022-10-04T05:06:43.318Z,1019.28
2022-10-04T05:07:43.315Z,1019.36
2022-10-04T05:08:43.292Z,1019.31
2022-10-04T05:09:43.299Z,1019.31
2022-10-04T05:10:43.262Z,1019.34
2022-10-04T05:11:43.505Z,1019.28
2022-10-04T05:12:43.246Z,1019.33
2022-10-04T05:13:43.239Z,1019.30
2022-10-04T05:14:43.232Z,1019.34
2022-10-04T05:15:43.241Z,1019.30
2022-10-04T05:16:43.248Z,1019.30
2022-10-04T05:17:43.202Z,1019.23
2022-10-04T05:18:43.190Z,1019.32
2022-10-04T05:19:43.184Z,1019.31
2022-10-04T05:20:43.162Z,1019.26
2022-10-04T05:21:43.180Z,1019.28
2022-10-04T05:22:43.141Z,1019.29
2022-10-04T05:23:43.133Z,1019.25
2022-10-04T05:24:43.134Z,1019.32
2022-10-04T05:25:43.125Z,1019.32
2022-10-04T05:26:43.103Z,1019.26
2022-10-04T05:27:43.119Z,1019.35
2022-10-04T05:28:43.089Z,1019.33
2022-10-04T05:29:43.056Z,1019.36
2022-10-04T05:30:43.044Z,1019.33
2022-10-04T05:31:43.236Z,1019.25
2022-10-04T05:32:43.087Z,1019.28
2022-10-04T05:33:43.018Z,1019.37
2022-10-04T05:34:43.024Z,1019.34
2022-10-04T05:35:42.995Z,1019.31
2022-10-04T05:36:43.001Z,1019.33
2022-10-04T05:37:42.966Z,1019.35
2022-10-04T05:38:42.977Z,1019.34
2022-10-04T05:39:42.965Z,1019.37
2022-10-04T05:40:42.961Z,1019.39
2022-10-04T05:41:43.228Z,1019.39
2022-10-04T05:42:42.929Z,1019.40
2022-10-04T05:43:42.940Z,1019.39
2022-10-04T05:44:42.900Z,1019.43
2022-10-04T05:45:42.902Z,1019.40
2022-10-04T05:46:44.137Z,1019.42
2022-10-04T05:47:42.874Z,1019.42
2022-10-04T05:48:42.882Z,1019.39
2022-10-04T05:49:42.841Z,1019.42
2022-10-04T05:50:42.850Z,1019.35
2022-10-04T05:51:43.078Z,1019.42
2022-10-04T05:52:42.831Z,1019.34
2022-10-04T05:53:42.802Z,1019.41
2022-10-04T05:54:42.823Z,1019.38
2022-10-04T05:55:42.800Z,1019.42
2022-10-04T05:56:42.761Z,1019.47
2022-10-04T05:57:42.772Z,1019.52
2022-10-04T05:58:42.745Z,1019.48
2022-10-04T05:59:42.746Z,1019.41
2022-10-04T06:00:42.723Z,1019.42
2022-10-04T06:01:43.091Z,1019.47
2022-10-04T06:02:42.741Z,1019.50
2022-10-04T06:03:42.702Z,1019.49
2022-10-04T06:04:42.692Z,1019.49
2022-10-04T06:05:42.705Z,1019.51
2022-10-04T06:06:42.654Z,1019.53
2022-10-04T06:07:42.643Z,1019.47
2022-10-04T06:08:42.644Z,1019.49
2022-10-04T06:09:42.633Z,1019.46
2022-10-04T06:10:42.650Z,1019.46
2022-10-04T06:11:42.855Z,1019.47
2022-10-04T06:12:44.513Z,1019.42
2022-10-04T06:13:42.604Z,1019.43
2022-10-04T06:14:42.577Z,1019.43
2022-10-04T06:15:42.568Z,1019.48
2022-10-04T06:16:42.624Z,1019.54
2022-10-04T06:17:42.536Z,1019.54
2022-10-04T06:18:42.536Z,1019.53
2022-10-04T06:19:42.528Z,1019.57
2022-10-04T06:20:42.528Z,1019.60
2022-10-04T06:21:42.953Z,1019.62
2022-10-04T06:22:42.490Z,1019.61
2022-10-04T06:23:42.470Z,1019.61
2022-10-04T06:24:42.459Z,1019.61
2022-10-04T06:25:42.450Z,1019.66
2022-10-04T06:26:42.449Z,1019.62
2022-10-04T06:27:42.468Z,1019.60
2022-10-04T06:28:42.420Z,1019.58
2022-10-04T06:29:42.410Z,1019.60
2022-10-04T06:30:42.459Z,1019.60
2022-10-04T06:31:42.711Z,1019.59
2022-10-04T06:32:42.421Z,1019.55
2022-10-04T06:33:42.370Z,1019.58
2022-10-04T06:34:42.351Z,1019.60
2022-10-04T06:35:42.352Z,1019.63
2022-10-04T06:36:42.346Z,1019.63
2022-10-04T06:37:42.314Z,1019.63
2022-10-04T06:38:42.363Z,1019.62
2022-10-04T06:39:42.313Z,1019.60
2022-10-04T06:40:42.298Z,1019.63
2022-10-04T06:41:42.574Z,1019.57
2022-10-04T06:42:42.267Z,1019.58
2022-10-04T06:43:42.253Z,1019.65
2022-10-04T06:44:45.643Z,1019.63
2022-10-04T06:45:42.263Z,1019.63
2022-10-04T06:46:42.235Z,1019.64
2022-10-04T06:47:42.245Z,1019.63
2022-10-04T06:48:42.204Z,1019.58
2022-10-04T06:49:42.205Z,1019.60
2022-10-04T06:50:42.176Z,1019.61
2022-10-04T06:51:42.433Z,1019.65
2022-10-04T06:52:42.163Z,1019.71
2022-10-04T06:53:42.154Z,1019.67
2022-10-04T06:54:42.157Z,1019.64
2022-10-04T06:55:42.126Z,1019.65
2022-10-04T06:56:42.118Z,1019.70
2022-10-04T06:57:42.107Z,1019.71
2022-10-04T06:58:42.099Z,1019.73
2022-10-04T06:59:42.126Z,1019.65
2022-10-04T07:00:42.078Z,1019.72
2022-10-04T07:01:42.443Z,1019.70
2022-10-04T07:02:42.095Z,1019.68
2022-10-04T07:03:42.051Z,1019.70
2022-10-04T07:05:07.031Z,1019.70
2022-10-04T07:05:43.057Z,1019.72
2022-10-04T07:06:42.012Z,1019.72
2022-10-04T07:07:42.030Z,1019.74
2022-10-04T07:08:41.990Z,1019.67
2022-10-04T07:09:41.992Z,1019.72
2022-10-04T07:10:41.979Z,1019.63
2022-10-04T07:11:42.266Z,1019.66
2022-10-04T07:12:41.951Z,1019.71
2022-10-04T07:13:41.930Z,1019.76
2022-10-04T07:14:41.923Z,1019.70
2022-10-04T07:15:42.000Z,1019.78
2022-10-04T07:16:41.909Z,1019.70
2022-10-04T07:17:41.900Z,1019.70
2022-10-04T07:18:41.870Z,1019.80
2022-10-04T07:19:41.863Z,1019.73
2022-10-04T07:20:41.869Z,1019.73
2022-10-04T07:21:42.143Z,1019.76
2022-10-04T07:22:41.874Z,1019.73
2022-10-04T07:23:41.833Z,1019.71
2022-10-04T07:24:41.834Z,1019.73
2022-10-04T07:25:41.823Z,1019.72
2022-10-04T07:26:41.796Z,1019.76
2022-10-04T07:27:41.803Z,1019.76
2022-10-04T07:28:41.773Z,1019.72
2022-10-04T07:29:42.386Z,1019.71
2022-10-04T07:30:41.801Z,1019.73
2022-10-04T07:31:42.146Z,1019.70
2022-10-04T07:32:41.755Z,1019.71
2022-10-04T07:33:41.714Z,1019.71
2022-10-04T07:34:41.723Z,1019.75
2022-10-04T07:35:41.693Z,1019.78
2022-10-04T07:36:41.697Z,1019.73
2022-10-04T07:37:41.710Z,1019.73
2022-10-04T07:38:41.677Z,1019.78
2022-10-04T07:39:41.674Z,1019.82
2022-10-04T07:40:41.675Z,1019.82
2022-10-04T07:41:41.985Z,1019.82
2022-10-04T07:42:41.617Z,1019.86
2022-10-04T07:43:41.638Z,1019.83
2022-10-04T07:44:41.605Z,1019.81
2022-10-04T07:45:41.730Z,1019.79
2022-10-04T07:46:41.590Z,1019.84
2022-10-04T07:47:41.570Z,1019.85
2022-10-04T07:48:41.574Z,1019.82
2022-10-04T07:49:41.572Z,1019.84
2022-10-04T07:50:41.566Z,1019.88
2022-10-04T07:51:41.800Z,1019.82
2022-10-04T07:52:41.522Z,1019.91
2022-10-04T07:53:41.509Z,1019.89
2022-10-04T07:54:41.549Z,1019.87
2022-10-04T07:55:41.479Z,1019.88
2022-10-04T07:56:41.475Z,1019.90
2022-10-04T07:57:41.469Z,1019.83
2022-10-04T07:58:45.601Z,1019.92
2022-10-04T07:59:41.442Z,1019.90
2022-10-04T08:00:41.472Z,1019.90
2022-10-04T08:01:41.937Z,1019.96
2022-10-04T08:02:41.548Z,1019.94
2022-10-04T08:03:41.408Z,1019.97
2022-10-04T08:04:41.395Z,1019.89
2022-10-04T08:05:41.395Z,1019.97
2022-10-04T08:06:41.660Z,1019.89
2022-10-04T08:07:41.356Z,1019.91
2022-10-04T08:08:41.346Z,1019.92
2022-10-04T08:09:41.393Z,1019.97
2022-10-04T08:10:41.315Z,1019.98
2022-10-04T08:11:41.585Z,1019.97
2022-10-04T08:12:41.309Z,1019.98
2022-10-04T08:13:41.308Z,1020.02
2022-10-04T08:14:41.285Z,1019.98
2022-10-04T08:15:41.343Z,1019.97
2022-10-04T08:16:41.648Z,1019.99
2022-10-04T08:17:41.245Z,1020.00
2022-10-04T08:18:41.241Z,1020.02
2022-10-04T08:19:41.225Z,1020.00
2022-10-04T08:20:41.219Z,1020.02
2022-10-04T08:21:41.199Z,1020.05
2022-10-04T08:22:41.206Z,1020.07
2022-10-04T08:23:41.201Z,1020.05
2022-10-04T08:24:41.206Z,1020.00
2022-10-04T08:25:41.176Z,1020.04
2022-10-04T08:26:41.306Z,1020.02
2022-10-04T08:27:41.138Z,1020.00
2022-10-04T08:28:41.138Z,1020.04
2022-10-04T08:29:41.129Z,1020.05
2022-10-04T08:30:41.145Z,1020.05
2022-10-04T08:31:41.106Z,1020.06
2022-10-04T08:32:41.078Z,1020.05
2022-10-04T08:33:41.080Z,1020.07
2022-10-04T08:34:41.070Z,1020.04
2022-10-04T08:35:41.093Z,1020.11
2022-10-04T08:36:41.343Z,1020.11
2022-10-04T08:37:41.050Z,1020.11
2022-10-04T08:38:41.032Z,1020.11
2022-10-04T08:39:41.155Z,1020.13
2022-10-04T08:40:41.031Z,1020.14
2022-10-04T08:41:40.993Z,1020.20
2022-10-04T08:42:40.983Z,1020.19
2022-10-04T08:43:40.972Z,1020.20
2022-10-04T08:44:40.955Z,1020.27
2022-10-04T08:45:40.962Z,1020.24
2022-10-04T08:46:41.413Z,1020.22
2022-10-04T08:47:40.922Z,1020.22
2022-10-04T08:48:40.914Z,1020.24
2022-10-04T08:49:40.913Z,1020.24
2022-10-04T08:50:40.893Z,1020.22
2022-10-04T08:51:40.904Z,1020.24
2022-10-04T08:52:40.877Z,1020.22
2022-10-04T08:53:40.884Z,1020.21
2022-10-04T08:54:40.858Z,1020.29
2022-10-04T08:55:40.837Z,1020.26
2022-10-04T08:56:41.317Z,1020.28
2022-10-04T08:57:40.811Z,1020.24
2022-10-04T08:58:40.803Z,1020.24
2022-10-04T08:59:40.801Z,1020.19
2022-10-04T09:00:40.788Z,1020.21
2022-10-04T09:01:40.837Z,1020.16
2022-10-04T09:02:40.811Z,1020.17
2022-10-04T09:03:40.755Z,1020.19
2022-10-04T09:04:40.745Z,1020.27
2022-10-04T09:05:40.736Z,1020.29
2022-10-04T09:06:40.983Z,1020.28
2022-10-04T09:07:40.729Z,1020.30
2022-10-04T09:08:40.714Z,1020.31
2022-10-04T09:09:40.698Z,1020.33
2022-10-04T09:10:40.677Z,1020.29
2022-10-04T09:11:40.734Z,1020.26
2022-10-04T09:12:40.693Z,1020.30
2022-10-04T09:13:40.647Z,1020.31
2022-10-04T09:14:40.649Z,1020.30
2022-10-04T09:15:40.710Z,1020.26
2022-10-04T09:16:40.867Z,1020.34
2022-10-04T09:17:40.601Z,1020.34
2022-10-04T09:18:40.612Z,1020.31
2022-10-04T09:19:40.581Z,1020.33
2022-10-04T09:20:40.598Z,1020.29
2022-10-04T09:21:40.565Z,1020.29
2022-10-04T09:22:40.550Z,1020.32
2022-10-04T09:23:40.569Z,1020.32
2022-10-04T09:24:40.522Z,1020.34
2022-10-04T09:25:40.510Z,1020.37
2022-10-04T09:26:41.003Z,1020.36
2022-10-04T09:27:54.769Z,1020.34
2022-10-04T09:28:41.643Z,1020.31
2022-10-04T09:29:40.463Z,1020.35
2022-10-04T09:30:40.646Z,1020.29
2022-10-04T09:31:40.449Z,1020.26
2022-10-04T09:32:40.433Z,1020.34
2022-10-04T09:33:40.430Z,1020.32
2022-10-04T09:34:40.452Z,1020.33
2022-10-04T09:35:40.405Z,1020.29
2022-10-04T09:36:40.752Z,1020.32
2022-10-04T09:37:40.393Z,1020.33
2022-10-04T09:38:40.398Z,1020.32
2022-10-04T09:39:40.414Z,1020.30
2022-10-04T09:40:44.199Z,1020.33
2022-10-04T09:41:41.344Z,1020.32
2022-10-04T09:42:40.374Z,1020.30
2022-10-04T09:43:40.343Z,1020.27
2022-10-04T09:44:40.343Z,1020.31
2022-10-04T09:45:40.337Z,1020.27
2022-10-04T09:46:40.688Z,1020.23
2022-10-04T09:47:40.276Z,1020.28
2022-10-04T09:48:40.281Z,1020.32
2022-10-04T09:49:40.290Z,1020.28
2022-10-04T09:50:40.291Z,1020.28
2022-10-04T09:51:40.258Z,1020.29
2022-10-04T09:52:40.349Z,1020.32
2022-10-04T09:53:40.226Z,1020.27
2022-10-04T09:54:44.350Z,1020.30
2022-10-04T09:55:40.215Z,1020.26
2022-10-04T09:56:40.354Z,1020.23
2022-10-04T09:57:40.176Z,1020.18
2022-10-04T09:58:40.239Z,1020.20
2022-10-04T09:59:40.530Z,1020.19
2022-10-04T10:00:40.330Z,1020.16
2022-10-04T10:01:40.455Z,1020.18
2022-10-04T10:02:40.455Z,1020.10
2022-10-04T10:03:40.463Z,1020.13
2022-10-04T10:04:40.190Z,1020.15
2022-10-04T10:05:40.099Z,1020.14
2022-10-04T10:06:40.350Z,1020.08
2022-10-04T10:07:40.074Z,1020.08
2022-10-04T10:08:40.056Z,1020.09
2022-10-04T10:09:40.044Z,1020.08
2022-10-04T10:10:40.058Z,1020.11
2022-10-04T10:11:40.618Z,1020.05
2022-10-04T10:12:40.035Z,1020.02
2022-10-04T10:13:39.994Z,1020.04
2022-10-04T10:14:39.992Z,1020.05
2022-10-04T10:15:40.073Z,1020.05
2022-10-04T10:16:40.041Z,1020.07
2022-10-04T10:17:39.945Z,1020.03
2022-10-04T10:18:39.953Z,1019.97
2022-10-04T10:19:39.935Z,1020.01
2022-10-04T10:20:39.926Z,1019.94
2022-10-04T10:21:40.232Z,1019.95
2022-10-04T10:22:39.916Z,1019.91
2022-10-04T10:23:39.917Z,1019.92
2022-10-04T10:24:39.893Z,1019.98
2022-10-04T10:25:39.855Z,1020.00
2022-10-04T10:26:39.885Z,1020.01
2022-10-04T10:27:39.877Z,1019.99
2022-10-04T10:28:39.896Z,1019.99
2022-10-04T10:29:39.825Z,1019.99
2022-10-04T10:30:39.806Z,1020.03
2022-10-04T10:31:39.847Z,1019.93
2022-10-04T10:32:39.817Z,1019.92
2022-10-04T10:33:39.779Z,1019.94
2022-10-04T10:34:39.810Z,1019.98
2022-10-04T10:35:39.767Z,1019.90
2022-10-04T10:36:39.749Z,1019.91
2022-10-04T10:37:39.759Z,1019.99
2022-10-04T10:38:39.727Z,1019.92
2022-10-04T10:39:39.710Z,1019.94
2022-10-04T10:40:39.717Z,1019.89
2022-10-04T10:41:39.715Z,1019.90
2022-10-04T10:42:39.719Z,1019.94
2022-10-04T10:43:39.677Z,1019.92
2022-10-04T10:44:39.670Z,1019.98
2022-10-04T10:45:39.664Z,1019.99
2022-10-04T10:46:39.686Z,1019.96
2022-10-04T10:47:39.659Z,1019.97
2022-10-04T10:48:39.631Z,1019.91
2022-10-04T10:49:39.608Z,1019.91
2022-10-04T10:50:39.598Z,1019.99
2022-10-04T10:51:39.605Z,1020.00
2022-10-04T10:52:39.588Z,1019.97
2022-10-04T10:53:39.591Z,1019.99
2022-10-04T10:54:39.558Z,1019.97
2022-10-04T10:55:39.541Z,1019.97
2022-10-04T10:56:39.557Z,1020.07
2022-10-04T10:57:39.525Z,1020.01
2022-10-04T10:58:39.613Z,1020.00
2022-10-04T10:59:39.505Z,1020.05
2022-10-04T11:00:39.485Z,1020.05
2022-10-04T11:01:39.510Z,1020.07
2022-10-04T11:02:49.215Z,1020.08
2022-10-04T11:03:40.553Z,1020.07
2022-10-04T11:04:39.458Z,1020.07
2022-10-04T11:05:39.445Z,1020.06
2022-10-04T11:06:39.455Z,1020.03
2022-10-04T11:07:39.423Z,1020.09
2022-10-04T11:08:39.417Z,1020.07
2022-10-04T11:09:39.432Z,1020.01
2022-10-04T11:10:39.393Z,1020.06
2022-10-04T11:11:39.375Z,1020.13
2022-10-04T11:12:39.389Z,1020.06
2022-10-04T11:13:39.361Z,1020.11
2022-10-04T11:14:39.379Z,1020.08
2022-10-04T11:15:39.415Z,1020.08
2022-10-04T11:16:39.327Z,1020.07
2022-10-04T11:17:39.343Z,1020.08
2022-10-04T11:18:39.307Z,1019.98
2022-10-04T11:19:39.289Z,1020.05
2022-10-04T11:20:39.349Z,1019.98
2022-10-04T11:21:39.271Z,1019.95
2022-10-04T11:22:39.258Z,1020.02
2022-10-04T11:23:39.285Z,1020.06
2022-10-04T11:24:39.237Z,1020.06
2022-10-04T11:25:39.230Z,1020.10
2022-10-04T11:26:39.230Z,1020.02
2022-10-04T11:27:39.209Z,1020.04
2022-10-04T11:28:39.284Z,1020.05
2022-10-04T11:29:39.192Z,1020.03
2022-10-04T11:30:39.178Z,1020.02
2022-10-04T11:31:39.272Z,1020.06
2022-10-04T11:32:39.196Z,1020.07
2022-10-04T11:33:39.186Z,1020.08
2022-10-04T11:34:39.142Z,1020.04
2022-10-04T11:35:39.121Z,1020.08
2022-10-04T11:36:39.141Z,1020.02
2022-10-04T11:37:39.143Z,1020.01
2022-10-04T11:38:39.087Z,1019.97
2022-10-04T11:39:43.752Z,1019.95
2022-10-04T11:40:40.226Z,1019.93
2022-10-04T11:41:39.068Z,1019.92
2022-10-04T11:42:39.047Z,1019.95
2022-10-04T11:43:39.057Z,1019.97
2022-10-04T11:44:39.015Z,1019.92
2022-10-04T11:45:39.012Z,1020.04
2022-10-04T11:46:39.063Z,1019.99
2022-10-04T11:47:38.998Z,1019.98
2022-10-04T11:48:39.006Z,1019.98
2022-10-04T11:49:38.995Z,1020.02
2022-10-04T11:50:38.994Z,1019.97
2022-10-04T11:51:38.956Z,1020.01
2022-10-04T11:52:38.950Z,1020.05
2022-10-04T11:53:38.926Z,1019.96
2022-10-04T11:54:38.927Z,1019.98
2022-10-04T11:55:38.905Z,1019.99
2022-10-04T11:56:38.897Z,1020.01
2022-10-04T11:57:38.898Z,1019.99
2022-10-04T11:58:38.874Z,1020.00
2022-10-04T11:59:38.907Z,1019.95
2022-10-04T12:00:38.846Z,1019.90
2022-10-04T12:01:38.838Z,1019.92
2022-10-04T12:02:38.829Z,1019.94
2022-10-04T12:03:38.846Z,1019.91
2022-10-04T12:04:38.851Z,1019.85
2022-10-04T12:05:38.833Z,1019.87